Time,TemperatureF,DewpointF,PressureIn,WindDirection,WindDirectionDegrees,WindSpeedMPH,WindSpeedGustMPH,Humidity,HourlyPrecipIn,Conditions,Clouds,dailyrainin,SoftwareType,DateUTC
2013-03-09 00:00:00,40.2,26.2,29.61,North,0,6.9,6.9,57,0.00,CLR,,0.00,WeatherDisplay:10.37,2013-03-09 05:00:00,
2013-03-09 00:05:00,40.1,26.1,29.61,North,0,2.3,2.3,57,0.00,CLR,,0.00,WeatherDisplay:10.37,2013-03-09 05:05:00,
2013-03-09 00:10:00,39.9,26.3,29.61,North,352,4.6,4.6,58,0.00,CLR,,0.00,WeatherDisplay:10.37,2013-03-09 05:10:00,
2013-03-09 00:15:00,39.9,26.3,29.61,North,0,3.5,3.5,58,0.00,CLR,,0.00,WeatherDisplay:10.37,2013-03-09 05:15:00,
2013-03-09 00:20:00,39.6,26.0,29.61,SW,233,0.0,0.3,58,0.00,CLR,,0.00,WeatherDisplay:10.37,2013-03-09 05:20:00,
2013-03-09 00:25:00,39.5,26.3,29.60,North,0,3.5,3.5,59,0.00,CLR,,0.00,WeatherDisplay:10.37,2013-03-09 05:25:00,
2013-03-09 00:30:00,39.3,26.2,29.60,North,0,3.5,3.5,59,0.00,CLR,,0.00,WeatherDisplay:10.37,2013-03-09 05:30:00,
2013-03-09 00:35:00,39.3,26.6,29.60,North,350,3.5,3.5,60,0.00,CLR,,0.00,WeatherDisplay:10.37,2013-03-09 05:35:00,
2013-03-09 00:40:00,39.2,26.1,29.61,NNW,336,6.9,6.9,59,0.00,CLR,,0.00,WeatherDisplay:10.37,2013-03-09 05:40:00,
2013-03-09 00:45:00,39.3,26.2,29.61,NNW,347,6.9,6.9,59,0.00,CLR,,0.00,WeatherDisplay:10.37,2013-03-09 05:45:00,
2013-03-09 00:50:00,39.3,26.2,29.61,North,356,1.1,1.1,59,0.00,CLR,,0.00,WeatherDisplay:10.37,2013-03-09 05:50:00,
2013-03-09 00:55:00,39.1,26.4,29.61,North,354,2.3,2.3,60,0.00,CLR,,0.00,WeatherDisplay:10.37,2013-03-09 05:55:00,
2013-03-09 01:00:00,38.9,26.2,29.61,North,359,3.5,3.5,60,0.00,CLR,,0.00,WeatherDisplay:10.37,2013-03-09 06:00:00,
2013-03-09 01:05:00,38.8,26.1,29.61,North,352,4.6,4.6,60,0.00,CLR,,0.00,WeatherDisplay:10.37,2013-03-09 06:05:00,
2013-03-09 01:10:00,38.6,26.3,29.61,North,359,3.5,3.5,61,0.00,CLR,,0.00,WeatherDisplay:10.37,2013-03-09 06:10:00,
2013-03-09 01:15:00,38.5,26.2,29.61,NNW,344,2.0,2.0,61,0.00,CLR,,0.00,WeatherDisplay:10.37,2013-03-09 06:15:00,
2013-03-09 01:20:00,38.3,26.0,29.61,North,0,6.9,6.9,61,0.00,CLR,,0.00,WeatherDisplay:10.37,2013-03-09 06:20:00,
2013-03-09 01:25:00,38.2,25.9,29.62,North,0,6.9,6.9,61,0.00,CLR,,0.00,WeatherDisplay:10.37,2013-03-09 06:25:00,
2013-03-09 01:30:00,38.2,25.9,29.62,North,6,5.8,5.8,61,0.00,CLR,,0.00,WeatherDisplay:10.37,2013-03-09 06:30:00,
2013-03-09 01:35:00,38.2,25.9,29.62,North,359,6.9,6.9,61,0.00,CLR,,0.00,WeatherDisplay:10.37,2013-03-09 06:35:00,
2013-03-09 01:40:00,38.2,25.9,29.62,NNW,340,6.9,6.9,61,0.00,CLR,,0.00,WeatherDisplay:10.37,2013-03-09 06:40:00,
2013-03-09 01:45:00,38.0,25.7,29.62,North,0,8.1,8.1,61,0.00,CLR,,0.00,WeatherDisplay:10.37,2013-03-09 06:45:00,
2013-03-09 01:50:00,38.0,25.7,29.62,North,359,4.6,4.6,61,0.00,CLR,,0.00,WeatherDisplay:10.37,2013-03-09 06:50:00,
2013-03-09 01:55:00,37.9,25.6,29.62,NNE,14,6.9,6.9,61,0.00,CLR,,0.00,WeatherDisplay:10.37,2013-03-09 06:55:00,
2013-03-09 02:00:00,38.0,25.7,29.62,North,3,10.4,10.4,61,0.00,CLR,,0.00,WeatherDisplay:10.37,2013-03-09 07:00:00,
2013-03-09 02:05:00,37.9,25.6,29.62,North,359,6.9,6.9,61,0.00,CLR,,0.00,WeatherDisplay:10.37,2013-03-09 07:05:00,
2013-03-09 02:10:00,37.8,25.5,29.61,North,349,10.4,10.4,61,0.00,CLR,,0.00,WeatherDisplay:10.37,2013-03-09 07:10:00,
2013-03-09 02:15:00,37.8,25.5,29.61,NNW,329,5.8,5.8,61,0.00,CLR,,0.00,WeatherDisplay:10.37,2013-03-09 07:15:00,
2013-03-09 02:20:00,37.8,25.5,29.61,North,359,5.8,5.8,61,0.00,CLR,,0.00,WeatherDisplay:10.37,2013-03-09 07:20:00,
2013-03-09 02:25:00,37.6,25.4,29.61,North,0,0.0,0.9,61,0.00,CLR,,0.00,WeatherDisplay:10.37,2013-03-09 07:25:00,
2013-03-09 02:30:00,37.5,25.3,29.61,North,359,4.6,4.6,61,0.00,CLR,,0.00,WeatherDisplay:10.37,2013-03-09 07:30:00,
2013-03-09 02:35:00,37.5,25.7,29.61,North,359,2.3,2.3,62,0.00,CLR,,0.00,WeatherDisplay:10.37,2013-03-09 07:35:00,
2013-03-09 02:40:00,37.3,25.5,29.61,North,356,5.8,5.8,62,0.00,CLR,,0.00,WeatherDisplay:10.37,2013-03-09 07:40:00,
2013-03-09 02:46:00,37.2,25.4,29.61,NNW,343,6.0,6.0,62,0.00,CLR,,0.00,WeatherDisplay:10.37,2013-03-09 07:46:00,
2013-03-09 02:51:00,37.2,25.4,29.61,North,357,5.8,5.8,62,0.00,CLR,,0.00,WeatherDisplay:10.37,2013-03-09 07:51:00,
2013-03-09 02:56:00,37.0,25.2,29.60,North,0,5.8,5.8,62,0.00,CLR,,0.00,WeatherDisplay:10.37,2013-03-09 07:56:00,
2013-03-09 03:01:00,36.9,25.5,29.60,North,354,2.3,2.3,63,0.00,CLR,,0.00,WeatherDisplay:10.37,2013-03-09 08:01:00,
2013-03-09 03:06:00,36.8,25.4,29.60,North,0,4.6,4.6,63,0.00,CLR,,0.00,WeatherDisplay:10.37,2013-03-09 08:06:00,
2013-03-09 03:11:00,36.6,25.6,29.59,North,0,2.3,2.3,64,0.00,CLR,,0.00,WeatherDisplay:10.37,2013-03-09 08:11:00,
2013-03-09 03:16:00,36.3,25.3,29.59,North,359,2.3,2.3,64,0.00,CLR,,0.00,WeatherDisplay:10.37,2013-03-09 08:16:00,
2013-03-09 03:21:00,36.2,25.2,29.59,North,0,1.1,1.9,64,0.00,CLR,,0.00,WeatherDisplay:10.37,2013-03-09 08:21:00,
2013-03-09 03:26:00,36.0,25.4,29.59,NNW,347,3.5,3.5,65,0.00,CLR,,0.00,WeatherDisplay:10.37,2013-03-09 08:26:00,
2013-03-09 03:31:00,35.9,25.3,29.59,North,0,3.5,3.5,65,0.00,CLR,,0.00,WeatherDisplay:10.37,2013-03-09 08:31:00,
2013-03-09 03:36:00,35.8,25.2,29.59,NNE,14,2.3,2.3,65,0.00,CLR,,0.00,WeatherDisplay:10.37,2013-03-09 08:36:00,
2013-03-09 03:41:00,35.6,25.4,29.59,North,349,1.1,2.0,66,0.00,CLR,,0.00,WeatherDisplay:10.37,2013-03-09 08:41:00,
2013-03-09 03:46:00,35.5,25.3,29.59,North,356,8.1,8.1,66,0.00,CLR,,0.00,WeatherDisplay:10.37,2013-03-09 08:46:00,
2013-03-09 03:51:00,35.5,25.3,29.59,North,357,0.0,0.2,66,0.00,CLR,,0.00,WeatherDisplay:10.37,2013-03-09 08:51:00,
2013-03-09 03:56:00,35.3,25.1,29.59,North,0,2.3,2.3,66,0.00,CLR,,0.00,WeatherDisplay:10.37,2013-03-09 08:56:00,
2013-03-09 04:01:00,35.3,25.1,29.59,North,3,2.3,2.3,66,0.00,CLR,,0.00,WeatherDisplay:10.37,2013-03-09 09:01:00,
2013-03-09 04:06:00,35.3,25.1,29.59,North,6,2.3,2.3,66,0.00,CLR,,0.00,WeatherDisplay:10.37,2013-03-09 09:06:00,
2013-03-09 04:11:00,35.2,25.3,29.59,North,0,1.1,1.1,67,0.00,CLR,,0.00,WeatherDisplay:10.37,2013-03-09 09:11:00,
2013-03-09 04:16:00,35.0,25.1,29.59,North,4,5.8,0.0,67,0.00,CLR,,0.00,WeatherDisplay:10.37,2013-03-09 09:16:00,
2013-03-09 04:21:00,35.0,25.1,29.59,North,0,3.5,0.0,67,0.00,CLR,,0.00,WeatherDisplay:10.37,2013-03-09 09:21:00,
2013-03-09 04:26:00,35.0,25.1,29.60,North,0,1.1,1.1,67,0.00,CLR,,0.00,WeatherDisplay:10.37,2013-03-09 09:26:00,
2013-03-09 04:31:00,35.0,25.1,29.60,North,356,2.3,2.3,67,0.00,CLR,,0.00,WeatherDisplay:10.37,2013-03-09 09:31:00,
2013-03-09 04:36:00,35.0,25.1,29.60,North,0,0.0,0.0,67,0.00,CLR,,0.00,WeatherDisplay:10.37,2013-03-09 09:36:00,
2013-03-09 04:41:00,35.0,25.1,29.60,NNW,340,5.8,5.8,67,0.00,CLR,,0.00,WeatherDisplay:10.37,2013-03-09 09:41:00,
2013-03-09 04:46:00,35.0,25.1,29.60,NNW,342,2.3,2.3,67,0.00,CLR,,0.00,WeatherDisplay:10.37,2013-03-09 09:46:00,
2013-03-09 04:51:00,35.0,25.1,29.60,North,0,2.3,2.3,67,0.00,CLR,,0.00,WeatherDisplay:10.37,2013-03-09 09:51:00,
2013-03-09 04:56:00,34.9,25.0,29.61,NNE,20,2.3,2.3,67,0.00,CLR,,0.00,WeatherDisplay:10.37,2013-03-09 09:56:00,
2013-03-09 05:01:00,34.7,25.2,29.61,NNE,14,3.5,3.5,68,0.00,CLR,,0.00,WeatherDisplay:10.37,2013-03-09 10:01:00,
2013-03-09 05:06:00,34.7,25.2,29.61,North,359,2.3,2.3,68,0.00,CLR,,0.00,WeatherDisplay:10.37,2013-03-09 10:06:00,
2013-03-09 05:11:00,34.7,25.2,29.61,North,359,3.5,3.5,68,0.00,CLR,,0.00,WeatherDisplay:10.37,2013-03-09 10:11:00,
2013-03-09 05:16:00,34.9,25.0,29.61,NW,326,3.5,3.5,67,0.00,CLR,,0.00,WeatherDisplay:10.37,2013-03-09 10:16:00,
2013-03-09 05:21:00,34.9,25.4,29.61,NNW,342,4.6,4.6,68,0.00,CLR,,0.00,WeatherDisplay:10.37,2013-03-09 10:21:00,
2013-03-09 05:26:00,34.9,25.0,29.62,North,359,0.0,0.0,67,0.00,CLR,,0.00,WeatherDisplay:10.37,2013-03-09 10:26:00,
2013-03-09 05:31:00,34.6,25.1,29.62,North,0,0.0,0.0,68,0.00,CLR,,0.00,WeatherDisplay:10.37,2013-03-09 10:31:00,
2013-03-09 05:36:00,34.4,24.9,29.62,NNE,13,3.5,3.5,68,0.00,CLR,,0.00,WeatherDisplay:10.37,2013-03-09 10:36:00,
2013-03-09 05:41:00,34.3,25.2,29.61,North,1,5.8,5.8,69,0.00,CLR,,0.00,WeatherDisplay:10.37,2013-03-09 10:41:00,
2013-03-09 05:46:00,34.3,25.2,29.61,NE,40,1.1,1.1,69,0.00,CLR,,0.00,WeatherDisplay:10.37,2013-03-09 10:46:00,
2013-03-09 05:51:00,34.1,25.0,29.61,North,3,2.3,2.3,69,0.00,CLR,,0.00,WeatherDisplay:10.37,2013-03-09 10:51:00,
2013-03-09 05:56:00,34.1,25.0,29.61,North,1,1.1,0.0,69,0.00,CLR,,0.00,WeatherDisplay:10.37,2013-03-09 10:56:00,
2013-03-09 06:01:00,34.1,25.0,29.61,NE,45,3.5,3.5,69,0.00,CLR,,0.00,WeatherDisplay:10.37,2013-03-09 11:01:00,
2013-03-09 06:06:00,34.1,25.0,29.61,North,8,4.6,4.6,69,0.00,CLR,,0.00,WeatherDisplay:10.37,2013-03-09 11:06:00,
2013-03-09 06:11:00,34.1,25.0,29.62,North,0,3.5,3.5,69,0.00,CLR,,0.00,WeatherDisplay:10.37,2013-03-09 11:11:00,
2013-03-09 06:16:00,34.3,25.2,29.62,North,1,0.0,0.0,69,0.00,CLR,,0.00,WeatherDisplay:10.37,2013-03-09 11:16:00,
2013-03-09 06:21:00,34.1,25.0,29.62,North,11,1.1,1.1,69,0.00,CLR,,0.00,WeatherDisplay:10.37,2013-03-09 11:21:00,
2013-03-09 06:26:00,34.0,24.9,29.62,North,11,2.3,2.3,69,0.00,CLR,,0.00,WeatherDisplay:10.37,2013-03-09 11:26:00,
2013-03-09 06:31:00,34.0,24.9,29.62,North,10,0.0,0.0,69,0.00,CLR,,0.00,WeatherDisplay:10.37,2013-03-09 11:31:00,
2013-03-09 06:36:00,33.8,24.7,29.62,North,10,2.3,2.3,69,0.00,CLR,,0.00,WeatherDisplay:10.37,2013-03-09 11:36:00,
2013-03-09 06:41:00,33.7,25.0,29.63,North,0,0.0,0.4,70,0.00,CLR,,0.00,WeatherDisplay:10.37,2013-03-09 11:41:00,
2013-03-09 06:46:00,33.4,25.0,29.63,North,0,0.0,0.0,71,0.00,CLR,,0.00,WeatherDisplay:10.37,2013-03-09 11:46:00,
2013-03-09 06:51:00,33.2,24.8,29.63,North,0,3.5,3.5,71,0.00,CLR,,0.00,WeatherDisplay:10.37,2013-03-09 11:51:00,
2013-03-09 06:56:00,33.2,24.8,29.63,North,0,0.0,0.0,71,0.00,CLR,,0.00,WeatherDisplay:10.37,2013-03-09 11:56:00,
2013-03-09 07:01:00,33.2,25.1,29.63,North,0,4.6,4.6,72,0.00,CLR,,0.00,WeatherDisplay:10.37,2013-03-09 12:01:00,
2013-03-09 07:06:00,33.4,25.3,29.63,NNE,31,5.8,5.8,72,0.00,CLR,,0.00,WeatherDisplay:10.37,2013-03-09 12:06:00,
2013-03-09 07:11:00,33.7,25.0,29.63,North,0,3.5,3.5,70,0.00,CLR,,0.00,WeatherDisplay:10.37,2013-03-09 12:11:00,
2013-03-09 07:16:00,34.0,25.2,29.63,NNE,20,2.3,2.3,70,0.00,CLR,,0.00,WeatherDisplay:10.37,2013-03-09 12:16:00,
2013-03-09 07:21:00,34.1,25.3,29.63,North,0,4.6,4.6,70,0.00,CLR,,0.00,WeatherDisplay:10.37,2013-03-09 12:21:00,
2013-03-09 07:26:00,34.3,25.2,29.63,North,7,5.8,5.8,69,0.00,CLR,,0.00,WeatherDisplay:10.37,2013-03-09 12:26:00,
2013-03-09 07:31:00,34.6,25.5,29.63,North,0,2.3,2.3,69,0.00,CLR,,0.00,WeatherDisplay:10.37,2013-03-09 12:31:00,
2013-03-09 07:36:00,34.9,25.4,29.63,North,0,3.5,3.5,68,0.00,CLR,,0.00,WeatherDisplay:10.37,2013-03-09 12:36:00,
2013-03-09 07:41:00,35.3,25.8,29.63,North,0,0.0,0.2,68,0.00,CLR,,0.00,WeatherDisplay:10.37,2013-03-09 12:41:00,
2013-03-09 07:46:00,35.8,25.9,29.63,North,359,3.5,3.5,67,0.00,CLR,,0.00,WeatherDisplay:10.37,2013-03-09 12:46:00,
2013-03-09 07:51:00,36.2,26.3,29.63,North,0,3.5,3.5,67,0.00,CLR,,0.00,WeatherDisplay:10.37,2013-03-09 12:51:00,
2013-03-09 07:56:00,36.5,26.2,29.64,NNE,24,1.1,1.1,66,0.00,CLR,,0.00,WeatherDisplay:10.37,2013-03-09 12:56:00,
2013-03-09 08:01:00,37.0,26.7,29.64,NW,323,3.5,3.5,66,0.00,CLR,,0.00,WeatherDisplay:10.37,2013-03-09 13:01:00,
2013-03-09 08:06:00,37.5,26.4,29.64,NE,41,4.6,4.6,64,0.00,CLR,,0.00,WeatherDisplay:10.37,2013-03-09 13:06:00,
2013-03-09 08:11:00,38.0,26.5,29.64,NNW,344,3.5,3.5,63,0.00,CLR,,0.00,WeatherDisplay:10.37,2013-03-09 13:11:00,
2013-03-09 08:16:00,38.5,26.6,29.64,ENE,62,5.8,5.8,62,0.00,CLR,,0.00,WeatherDisplay:10.37,2013-03-09 13:16:00,
2013-03-09 08:21:00,39.1,26.4,29.64,ENE,59,8.1,8.1,60,0.00,CLR,,0.00,WeatherDisplay:10.37,2013-03-09 13:21:00,
2013-03-09 08:26:00,39.6,26.8,29.65,NNE,25,4.6,4.6,60,0.00,CLR,,0.00,WeatherDisplay:10.37,2013-03-09 13:26:00,
2013-03-09 08:31:00,40.2,27.0,29.65,NNE,17,3.5,3.5,59,0.00,CLR,,0.00,WeatherDisplay:10.37,2013-03-09 13:31:00,
2013-03-09 08:36:00,40.9,26.8,29.65,NE,35,11.5,11.5,57,0.00,CLR,,0.00,WeatherDisplay:10.37,2013-03-09 13:36:00,
2013-03-09 08:41:00,41.5,26.5,29.66,NNE,18,3.5,3.8,55,0.00,CLR,,0.00,WeatherDisplay:10.37,2013-03-09 13:41:00,
2013-03-09 08:46:00,41.9,26.4,29.66,NE,34,6.9,6.9,54,0.00,CLR,,0.00,WeatherDisplay:10.37,2013-03-09 13:46:00,
2013-03-09 08:51:00,42.2,25.8,29.66,NE,47,11.5,11.5,52,0.00,CLR,,0.00,WeatherDisplay:10.37,2013-03-09 13:51:00,
2013-03-09 08:56:00,42.5,25.6,29.67,North,350,6.9,6.9,51,0.00,CLR,,0.00,WeatherDisplay:10.37,2013-03-09 13:56:00,
2013-03-09 09:01:00,42.6,26.2,29.67,NE,41,6.9,6.9,52,0.00,CLR,,0.00,WeatherDisplay:10.37,2013-03-09 14:01:00,
2013-03-09 09:06:00,43.2,25.8,29.67,NE,42,12.7,12.7,50,0.00,CLR,,0.00,WeatherDisplay:10.37,2013-03-09 14:06:00,
2013-03-09 09:11:00,43.6,26.2,29.66,ENE,59,3.5,3.5,50,0.00,CLR,,0.00,WeatherDisplay:10.37,2013-03-09 14:11:00,
2013-03-09 09:16:00,44.1,25.6,29.66,NNE,14,11.5,11.5,48,0.00,CLR,,0.00,WeatherDisplay:10.37,2013-03-09 14:16:00,
2013-03-09 09:21:00,44.5,26.5,29.66,North,0,6.9,6.9,49,0.00,CLR,,0.00,WeatherDisplay:10.37,2013-03-09 14:21:00,
2013-03-09 09:26:00,44.6,26.1,29.66,East,97,6.9,6.9,48,0.00,CLR,,0.00,WeatherDisplay:10.37,2013-03-09 14:26:00,
2013-03-09 09:31:00,45.2,26.1,29.66,NNE,20,10.0,10.0,47,0.00,CLR,,0.00,WeatherDisplay:10.37,2013-03-09 14:31:00,
2013-03-09 09:36:00,45.4,25.3,29.66,North,356,11.5,11.5,45,0.00,CLR,,0.00,WeatherDisplay:10.37,2013-03-09 14:36:00,
2013-03-09 09:41:00,45.5,25.9,29.66,ENE,71,3.5,3.5,46,0.00,CLR,,0.00,WeatherDisplay:10.37,2013-03-09 14:41:00,
2013-03-09 09:46:00,45.8,25.1,29.66,North,1,11.5,11.5,44,0.00,CLR,,0.00,WeatherDisplay:10.37,2013-03-09 14:46:00,
2013-03-09 09:51:00,45.8,25.1,29.66,NNW,333,10.4,10.4,44,0.00,CLR,,0.00,WeatherDisplay:10.37,2013-03-09 14:51:00,
2013-03-09 09:56:00,46.0,25.3,29.66,NNE,24,8.1,8.1,44,0.00,CLR,,0.00,WeatherDisplay:10.37,2013-03-09 14:56:00,
2013-03-09 10:01:00,46.5,25.7,29.66,NE,54,3.5,3.5,44,0.00,CLR,,0.00,WeatherDisplay:10.37,2013-03-09 15:01:00,
2013-03-09 10:06:00,47.0,25.1,29.66,NNE,17,6.9,6.9,42,0.00,CLR,,0.00,WeatherDisplay:10.37,2013-03-09 15:06:00,
2013-03-09 10:11:00,47.0,24.5,29.66,North,11,10.4,10.4,41,0.00,CLR,,0.00,WeatherDisplay:10.37,2013-03-09 15:11:00,
2013-03-09 10:16:00,47.3,24.8,29.66,NNE,14,3.5,3.5,41,0.00,CLR,,0.00,WeatherDisplay:10.37,2013-03-09 15:16:00,
2013-03-09 10:21:00,47.7,26.3,29.66,NE,42,3.5,0.0,43,0.00,CLR,,0.00,WeatherDisplay:10.37,2013-03-09 15:21:00,
2013-03-09 10:26:00,48.0,24.8,29.66,NE,48,8.1,8.1,40,0.00,CLR,,0.00,WeatherDisplay:10.37,2013-03-09 15:26:00,
2013-03-09 10:31:00,48.0,25.4,29.66,NNE,21,3.5,3.5,41,0.00,CLR,,0.00,WeatherDisplay:10.37,2013-03-09 15:31:00,
2013-03-09 10:36:00,48.6,25.3,29.66,North,356,8.1,8.1,40,0.00,CLR,,0.00,WeatherDisplay:10.37,2013-03-09 15:36:00,
2013-03-09 10:41:00,48.6,25.9,29.66,NNW,343,6.0,6.0,41,0.00,CLR,,0.00,WeatherDisplay:10.37,2013-03-09 15:41:00,
2013-03-09 10:46:00,49.1,25.8,29.66,NNW,347,8.1,8.1,40,0.00,CLR,,0.00,WeatherDisplay:10.37,2013-03-09 15:46:00,
2013-03-09 10:51:00,49.4,26.1,29.66,NNW,330,5.8,5.8,40,0.00,CLR,,0.00,WeatherDisplay:10.37,2013-03-09 15:51:00,
2013-03-09 10:56:00,49.5,25.5,29.66,NNE,25,8.1,8.1,39,0.00,CLR,,0.00,WeatherDisplay:10.37,2013-03-09 15:56:00,
2013-03-09 11:01:00,49.8,25.8,29.66,North,11,4.6,4.6,39,0.00,CLR,,0.00,WeatherDisplay:10.37,2013-03-09 16:01:00,
2013-03-09 11:06:00,50.5,26.4,29.66,NNW,328,4.6,4.6,39,0.00,CLR,,0.00,WeatherDisplay:10.37,2013-03-09 16:06:00,
2013-03-09 11:11:00,51.0,26.3,29.65,North,0,5.8,5.8,38,0.00,CLR,,0.00,WeatherDisplay:10.37,2013-03-09 16:11:00,
2013-03-09 11:16:00,51.4,26.6,29.65,North,349,9.2,9.2,38,0.00,CLR,,0.00,WeatherDisplay:10.37,2013-03-09 16:16:00,
2013-03-09 11:21:00,51.7,27.5,29.65,North,359,2.3,0.0,39,0.00,CLR,,0.00,WeatherDisplay:10.37,2013-03-09 16:21:00,
2013-03-09 11:26:00,52.0,26.5,29.65,NNE,28,8.1,8.1,37,0.00,CLR,,0.00,WeatherDisplay:10.37,2013-03-09 16:26:00,
2013-03-09 11:31:00,52.2,26.7,29.65,North,0,4.6,4.6,37,0.00,CLR,,0.00,WeatherDisplay:10.37,2013-03-09 16:31:00,
2013-03-09 11:36:00,52.3,26.1,29.65,ENE,62,6.9,6.9,36,0.00,CLR,,0.00,WeatherDisplay:10.37,2013-03-09 16:36:00,
2013-03-09 11:41:00,52.6,25.7,29.65,ENE,78,11.5,11.5,35,0.00,CLR,,0.00,WeatherDisplay:10.37,2013-03-09 16:41:00,
2013-03-09 11:46:00,52.9,26.0,29.65,North,0,1.1,1.1,35,0.00,CLR,,0.00,WeatherDisplay:10.37,2013-03-09 16:46:00,
2013-03-09 11:51:00,53.1,26.1,29.65,North,0,8.1,8.1,35,0.00,CLR,,0.00,WeatherDisplay:10.37,2013-03-09 16:51:00,
2013-03-09 11:56:00,53.5,27.2,29.65,NE,41,8.1,8.1,36,0.00,CLR,,0.00,WeatherDisplay:10.37,2013-03-09 16:56:00,
2013-03-09 12:01:00,53.8,26.8,29.65,North,0,10.4,10.4,35,0.00,CLR,,0.00,WeatherDisplay:10.37,2013-03-09 17:01:00,
2013-03-09 12:06:00,53.8,26.8,29.65,East,82,1.1,1.1,35,0.00,CLR,,0.00,WeatherDisplay:10.37,2013-03-09 17:06:00,
2013-03-09 12:11:00,54.4,24.4,29.64,NNW,342,9.2,9.2,31,0.00,CLR,,0.00,WeatherDisplay:10.37,2013-03-09 17:11:00,
2013-03-09 12:16:00,54.5,28.1,29.64,East,83,4.6,4.6,36,0.00,CLR,,0.00,WeatherDisplay:10.37,2013-03-09 17:16:00,
2013-03-09 12:21:00,54.8,25.5,29.64,ENE,68,6.9,6.9,32,0.00,CLR,,0.00,WeatherDisplay:10.37,2013-03-09 17:21:00,
2013-03-09 12:26:00,55.1,25.0,29.64,NE,37,10.4,10.4,31,0.00,CLR,,0.00,WeatherDisplay:10.37,2013-03-09 17:26:00,
2013-03-09 12:31:00,55.6,25.4,29.64,NE,41,2.0,2.7,31,0.00,CLR,,0.00,WeatherDisplay:10.37,2013-03-09 17:31:00,
2013-03-09 12:36:00,56.0,26.5,29.64,NE,41,11.5,11.5,32,0.00,CLR,,0.00,WeatherDisplay:10.37,2013-03-09 17:36:00,
2013-03-09 12:41:00,56.3,24.4,29.63,NNE,20,5.8,5.8,29,0.00,CLR,,0.00,WeatherDisplay:10.37,2013-03-09 17:41:00,
2013-03-09 12:47:00,56.6,25.5,29.63,NNE,28,3.5,0.0,30,0.00,CLR,,0.00,WeatherDisplay:10.37,2013-03-09 17:47:00,
2013-03-09 12:52:00,56.7,23.9,29.63,NE,44,11.5,11.5,28,0.00,CLR,,0.00,WeatherDisplay:10.37,2013-03-09 17:52:00,
2013-03-09 12:57:00,56.7,24.8,29.63,NE,35,5.8,5.8,29,0.00,CLR,,0.00,WeatherDisplay:10.37,2013-03-09 17:57:00,
2013-03-09 13:02:00,57.2,26.0,29.63,North,0,5.8,5.8,30,0.00,CLR,,0.00,WeatherDisplay:10.37,2013-03-09 18:02:00,
2013-03-09 13:07:00,57.5,24.6,29.63,NNE,16,3.5,3.5,28,0.00,CLR,,0.00,WeatherDisplay:10.37,2013-03-09 18:07:00,
2013-03-09 13:12:00,57.5,24.6,29.62,WNW,282,3.5,3.5,28,0.00,CLR,,0.00,WeatherDisplay:10.37,2013-03-09 18:12:00,
2013-03-09 13:17:00,57.5,24.6,29.62,NNE,24,6.9,6.9,28,0.00,CLR,,0.00,WeatherDisplay:10.37,2013-03-09 18:17:00,
2013-03-09 13:22:00,57.6,24.7,29.62,NNE,18,6.9,6.9,28,0.00,CLR,,0.00,WeatherDisplay:10.37,2013-03-09 18:22:00,
2013-03-09 13:27:00,58.1,25.1,29.61,NNE,23,6.9,6.9,28,0.00,CLR,,0.00,WeatherDisplay:10.37,2013-03-09 18:27:00,
2013-03-09 13:32:00,57.8,24.0,29.61,North,350,3.0,3.0,27,0.00,CLR,,0.00,WeatherDisplay:10.37,2013-03-09 18:32:00,
2013-03-09 13:37:00,57.6,22.9,29.61,NNW,342,5.8,5.8,26,0.00,CLR,,0.00,WeatherDisplay:10.37,2013-03-09 18:37:00,
2013-03-09 13:42:00,57.8,24.0,29.61,NNE,31,3.0,3.0,27,0.00,CLR,,0.00,WeatherDisplay:10.37,2013-03-09 18:42:00,
2013-03-09 13:47:00,58.0,23.3,29.61,NNW,343,8.1,9.5,26,0.00,CLR,,0.00,WeatherDisplay:10.37,2013-03-09 18:47:00,
2013-03-09 13:52:00,57.5,22.8,29.61,North,357,3.5,3.5,26,0.00,CLR,,0.00,WeatherDisplay:10.37,2013-03-09 18:52:00,
2013-03-09 13:57:00,57.6,22.9,29.60,North,359,6.0,6.0,26,0.00,CLR,,0.00,WeatherDisplay:10.37,2013-03-09 18:57:00,
2013-03-09 14:02:00,58.4,24.5,29.60,North,0,6.9,6.9,27,0.00,CLR,,0.00,WeatherDisplay:10.37,2013-03-09 19:02:00,
2013-03-09 14:07:00,58.9,24.0,29.60,NW,311,6.9,6.9,26,0.00,CLR,,0.00,WeatherDisplay:10.37,2013-03-09 19:07:00,
2013-03-09 14:12:00,59.3,25.3,29.60,NW,304,5.8,5.8,27,0.00,CLR,,0.00,WeatherDisplay:10.37,2013-03-09 19:12:00,
2013-03-09 14:17:00,59.6,24.6,29.60,North,1,5.0,5.0,26,0.00,CLR,,0.00,WeatherDisplay:10.37,2013-03-09 19:17:00,
2013-03-09 14:22:00,59.3,25.3,29.60,ESE,109,3.5,3.5,27,0.00,CLR,,0.00,WeatherDisplay:10.37,2013-03-09 19:22:00,
2013-03-09 14:27:00,59.3,25.3,29.59,East,90,3.5,3.5,27,0.00,CLR,,0.00,WeatherDisplay:10.37,2013-03-09 19:27:00,
2013-03-09 14:32:00,59.5,23.6,29.59,ESE,102,4.6,4.6,25,0.00,CLR,,0.00,WeatherDisplay:10.37,2013-03-09 19:32:00,
2013-03-09 14:37:00,59.3,24.4,29.59,ESE,102,1.1,1.1,26,0.00,CLR,,0.00,WeatherDisplay:10.37,2013-03-09 19:37:00,
2013-03-09 14:42:00,59.5,24.5,29.59,NE,45,6.9,6.9,26,0.00,CLR,,0.00,WeatherDisplay:10.37,2013-03-09 19:42:00,
2013-03-09 14:47:00,59.8,24.8,29.59,NNE,24,8.1,8.1,26,0.00,CLR,,0.00,WeatherDisplay:10.37,2013-03-09 19:47:00,
2013-03-09 14:52:00,59.6,24.6,29.59,ENE,66,8.1,8.1,26,0.00,CLR,,0.00,WeatherDisplay:10.37,2013-03-09 19:52:00,
2013-03-09 14:57:00,59.5,24.5,29.59,ENE,65,1.1,1.1,26,0.00,CLR,,0.00,WeatherDisplay:10.37,2013-03-09 19:57:00,
2013-03-09 15:02:00,59.6,24.6,29.59,North,356,8.1,8.1,26,0.00,CLR,,0.00,WeatherDisplay:10.37,2013-03-09 20:02:00,
2013-03-09 15:07:00,59.6,24.6,29.59,North,356,4.6,4.6,26,0.00,CLR,,0.00,WeatherDisplay:10.37,2013-03-09 20:07:00,
2013-03-09 15:12:00,60.1,26.0,29.59,NNW,343,1.1,1.1,27,0.00,CLR,,0.00,WeatherDisplay:10.37,2013-03-09 20:12:00,
2013-03-09 15:17:00,60.5,25.4,29.59,NNW,346,4.6,4.6,26,0.00,CLR,,0.00,WeatherDisplay:10.37,2013-03-09 20:17:00,
2013-03-09 15:22:00,60.5,25.4,29.59,NE,42,5.8,5.8,26,0.00,CLR,,0.00,WeatherDisplay:10.37,2013-03-09 20:22:00,
2013-03-09 15:27:00,60.5,25.4,29.58,NE,37,1.1,0.0,26,0.00,CLR,,0.00,WeatherDisplay:10.37,2013-03-09 20:27:00,
2013-03-09 15:32:00,60.2,24.2,29.58,NE,37,0.0,0.0,25,0.00,CLR,,0.00,WeatherDisplay:10.37,2013-03-09 20:32:00,
2013-03-09 15:37:00,60.5,25.4,29.58,NE,37,4.6,4.6,26,0.00,CLR,,0.00,WeatherDisplay:10.37,2013-03-09 20:37:00,
2013-03-09 15:42:00,60.9,25.7,29.58,ENE,58,2.3,2.3,26,0.00,CLR,,0.00,WeatherDisplay:10.37,2013-03-09 20:42:00,
2013-03-09 15:47:00,60.7,25.6,29.58,NNE,23,4.6,4.6,26,0.00,CLR,,0.00,WeatherDisplay:10.37,2013-03-09 20:47:00,
2013-03-09 15:52:00,60.4,25.3,29.58,ESE,123,3.5,3.5,26,0.00,CLR,,0.00,WeatherDisplay:10.37,2013-03-09 20:52:00,
2013-03-09 15:57:00,60.2,25.1,29.58,North,357,6.9,6.9,26,0.00,CLR,,0.00,WeatherDisplay:10.37,2013-03-09 20:57:00,
2013-03-09 16:02:00,60.4,25.3,29.58,NNE,24,3.5,3.5,26,0.00,CLR,,0.00,WeatherDisplay:10.37,2013-03-09 21:02:00,
2013-03-09 16:07:00,60.5,26.3,29.58,NNE,20,0.0,0.0,27,0.00,CLR,,0.00,WeatherDisplay:10.37,2013-03-09 21:07:00,
2013-03-09 16:12:00,60.7,25.6,29.58,NE,45,5.8,5.8,26,0.00,CLR,,0.00,WeatherDisplay:10.37,2013-03-09 21:12:00,
2013-03-09 16:17:00,60.4,25.3,29.58,NE,37,6.0,6.0,26,0.00,CLR,,0.00,WeatherDisplay:10.37,2013-03-09 21:17:00,
2013-03-09 16:22:00,60.5,25.4,29.58,NE,56,0.0,0.0,26,0.00,CLR,,0.00,WeatherDisplay:10.37,2013-03-09 21:22:00,
2013-03-09 16:27:00,61.0,25.8,29.58,NE,49,1.1,1.1,26,0.00,CLR,,0.00,WeatherDisplay:10.37,2013-03-09 21:27:00,
2013-03-09 16:32:00,61.2,26.0,29.58,North,0,8.1,8.1,26,0.00,CLR,,0.00,WeatherDisplay:10.37,2013-03-09 21:32:00,
2013-03-09 16:37:00,60.7,26.5,29.58,North,0,0.0,0.0,27,0.00,CLR,,0.00,WeatherDisplay:10.37,2013-03-09 21:37:00,
2013-03-09 16:42:00,61.0,25.8,29.58,NNE,16,5.8,5.8,26,0.00,CLR,,0.00,WeatherDisplay:10.37,2013-03-09 21:42:00,
2013-03-09 16:47:00,61.2,26.0,29.58,NE,38,1.0,1.0,26,0.00,CLR,,0.00,WeatherDisplay:10.37,2013-03-09 21:47:00,
2013-03-09 16:52:00,61.2,26.0,29.58,NNE,32,5.8,5.8,26,0.00,CLR,,0.00,WeatherDisplay:10.37,2013-03-09 21:52:00,
2013-03-09 16:57:00,60.7,25.6,29.58,NE,44,0.0,0.0,26,0.00,CLR,,0.00,WeatherDisplay:10.37,2013-03-09 21:57:00,
2013-03-09 17:02:00,60.2,26.1,29.58,East,99,2.3,2.3,27,0.00,CLR,,0.00,WeatherDisplay:10.37,2013-03-09 22:02:00,
2013-03-09 17:07:00,60.1,26.0,29.58,NE,42,3.5,3.5,27,0.00,CLR,,0.00,WeatherDisplay:10.37,2013-03-09 22:07:00,
2013-03-09 17:12:00,59.8,24.8,29.58,NE,34,6.9,6.9,26,0.00,CLR,,0.00,WeatherDisplay:10.37,2013-03-09 22:12:00,
2013-03-09 17:17:00,59.6,25.5,29.58,North,11,0.0,0.0,27,0.00,CLR,,0.00,WeatherDisplay:10.37,2013-03-09 22:17:00,
2013-03-09 17:22:00,59.6,25.5,29.58,North,11,0.0,0.0,27,0.00,CLR,,0.00,WeatherDisplay:10.37,2013-03-09 22:22:00,
2013-03-09 17:27:00,59.2,25.2,29.58,East,92,0.0,0.0,27,0.00,CLR,,0.00,WeatherDisplay:10.37,2013-03-09 22:27:00,
2013-03-09 17:32:00,58.6,25.6,29.58,East,92,0.0,0.0,28,0.00,CLR,,0.00,WeatherDisplay:10.37,2013-03-09 22:32:00,
2013-03-09 17:37:00,58.3,25.3,29.58,East,92,0.0,0.0,28,0.00,CLR,,0.00,WeatherDisplay:10.37,2013-03-09 22:37:00,
2013-03-09 17:42:00,58.0,25.0,29.58,East,92,0.0,0.0,28,0.00,CLR,,0.00,WeatherDisplay:10.37,2013-03-09 22:42:00,
2013-03-09 17:47:00,57.6,25.5,29.58,East,92,0.0,0.0,29,0.00,CLR,,0.00,WeatherDisplay:10.37,2013-03-09 22:47:00,
2013-03-09 17:52:00,57.3,25.3,29.58,East,92,0.0,0.0,29,0.00,CLR,,0.00,WeatherDisplay:10.37,2013-03-09 22:52:00,
2013-03-09 17:57:00,57.0,25.8,29.58,East,92,0.0,0.0,30,0.00,CLR,,0.00,WeatherDisplay:10.37,2013-03-09 22:57:00,
2013-03-09 18:02:00,56.7,25.6,29.58,East,92,0.0,0.0,30,0.00,CLR,,0.00,WeatherDisplay:10.37,2013-03-09 23:02:00,
2013-03-09 18:07:00,56.5,25.4,29.58,East,92,0.0,0.0,30,0.00,CLR,,0.00,WeatherDisplay:10.37,2013-03-09 23:07:00,
2013-03-09 18:12:00,56.3,25.2,29.59,East,92,0.0,0.0,30,0.00,CLR,,0.00,WeatherDisplay:10.37,2013-03-09 23:12:00,
2013-03-09 18:17:00,55.9,24.9,29.59,East,92,0.0,0.0,30,0.00,CLR,,0.00,WeatherDisplay:10.37,2013-03-09 23:17:00,
2013-03-09 18:22:00,55.6,23.8,29.59,East,92,0.0,0.0,29,0.00,CLR,,0.00,WeatherDisplay:10.37,2013-03-09 23:22:00,
2013-03-09 18:27:00,55.4,23.6,29.59,East,92,0.0,0.0,29,0.00,CLR,,0.00,WeatherDisplay:10.37,2013-03-09 23:27:00,
2013-03-09 18:32:00,55.1,24.2,29.59,East,92,0.0,0.0,30,0.00,CLR,,0.00,WeatherDisplay:10.37,2013-03-09 23:32:00,
2013-03-09 18:37:00,54.8,24.7,29.59,East,92,0.0,0.0,31,0.00,CLR,,0.00,WeatherDisplay:10.37,2013-03-09 23:37:00,
2013-03-09 18:42:00,54.5,24.4,29.59,East,92,0.0,0.0,31,0.00,CLR,,0.00,WeatherDisplay:10.37,2013-03-09 23:42:00,
2013-03-09 18:47:00,54.1,24.1,29.59,East,92,0.0,0.0,31,0.00,CLR,,0.00,WeatherDisplay:10.37,2013-03-09 23:47:00,
2013-03-09 18:52:00,53.6,23.7,29.59,East,92,0.0,0.0,31,0.00,CLR,,0.00,WeatherDisplay:10.37,2013-03-09 23:52:00,
2013-03-09 18:57:00,53.3,23.4,29.60,East,92,0.0,0.0,31,0.00,CLR,,0.00,WeatherDisplay:10.37,2013-03-09 23:57:00,
2013-03-09 19:02:00,53.1,23.2,29.60,East,92,0.0,0.0,31,0.00,CLR,,0.00,WeatherDisplay:10.37,2013-03-10 00:02:00,
2013-03-09 19:07:00,52.8,23.0,29.60,East,92,0.0,0.0,31,0.00,CLR,,0.00,WeatherDisplay:10.37,2013-03-10 00:07:00,
2013-03-09 19:12:00,52.6,22.8,29.60,East,92,0.0,0.0,31,0.00,CLR,,0.00,WeatherDisplay:10.37,2013-03-10 00:12:00,
2013-03-09 19:17:00,52.5,23.5,29.60,East,92,0.0,0.0,32,0.00,CLR,,0.00,WeatherDisplay:10.37,2013-03-10 00:17:00,
2013-03-09 19:22:00,52.2,23.2,29.60,East,92,0.0,0.0,32,0.00,CLR,,0.00,WeatherDisplay:10.37,2013-03-10 00:22:00,
2013-03-09 19:27:00,52.0,23.0,29.60,East,92,0.0,0.0,32,0.00,CLR,,0.00,WeatherDisplay:10.37,2013-03-10 00:27:00,
2013-03-09 19:32:00,51.9,22.9,29.60,East,92,0.0,0.0,32,0.00,CLR,,0.00,WeatherDisplay:10.37,2013-03-10 00:32:00,
2013-03-09 19:37:00,51.9,22.9,29.60,East,92,0.0,0.0,32,0.00,CLR,,0.00,WeatherDisplay:10.37,2013-03-10 00:37:00,
2013-03-09 19:42:00,51.6,22.7,29.61,East,92,0.0,0.0,32,0.00,CLR,,0.00,WeatherDisplay:10.37,2013-03-10 00:42:00,
2013-03-09 19:47:00,51.3,22.4,29.61,East,92,0.0,0.0,32,0.00,CLR,,0.00,WeatherDisplay:10.37,2013-03-10 00:47:00,
2013-03-09 19:52:00,51.1,22.2,29.61,East,92,0.0,0.0,32,0.00,CLR,,0.00,WeatherDisplay:10.37,2013-03-10 00:52:00,
2013-03-09 19:57:00,51.0,22.9,29.61,East,92,0.0,0.0,33,0.00,CLR,,0.00,WeatherDisplay:10.37,2013-03-10 00:57:00,
2013-03-09 20:02:00,50.7,23.3,29.61,East,92,0.0,0.0,34,0.00,CLR,,0.00,WeatherDisplay:10.37,2013-03-10 01:02:00,
2013-03-09 20:07:00,50.7,22.6,29.61,East,92,0.0,0.0,33,0.00,CLR,,0.00,WeatherDisplay:10.37,2013-03-10 01:07:00,
2013-03-09 20:12:00,50.5,23.1,29.61,East,92,0.0,0.0,34,0.00,CLR,,0.00,WeatherDisplay:10.37,2013-03-10 01:12:00,
2013-03-09 20:17:00,50.5,23.1,29.61,East,92,0.0,0.0,34,0.00,CLR,,0.00,WeatherDisplay:10.37,2013-03-10 01:17:00,
2013-03-09 20:22:00,50.5,22.4,29.61,East,92,0.0,0.0,33,0.00,CLR,,0.00,WeatherDisplay:10.37,2013-03-10 01:22:00,
2013-03-09 20:27:00,50.7,22.6,29.61,East,92,0.0,0.0,33,0.00,CLR,,0.00,WeatherDisplay:10.37,2013-03-10 01:27:00,
2013-03-09 20:32:00,50.7,22.6,29.61,East,92,0.0,0.0,33,0.00,CLR,,0.00,WeatherDisplay:10.37,2013-03-10 01:32:00,
2013-03-09 20:37:00,50.8,22.0,29.61,East,92,0.0,0.0,32,0.00,CLR,,0.00,WeatherDisplay:10.37,2013-03-10 01:37:00,
2013-03-09 20:42:00,50.7,21.9,29.61,East,92,0.0,0.0,32,0.00,CLR,,0.00,WeatherDisplay:10.37,2013-03-10 01:42:00,
2013-03-09 20:47:00,50.5,21.7,29.61,East,92,0.0,0.0,32,0.00,CLR,,0.00,WeatherDisplay:10.37,2013-03-10 01:47:00,
2013-03-09 20:53:00,50.7,21.1,29.61,East,92,0.0,0.0,31,0.00,CLR,,0.00,WeatherDisplay:10.37,2013-03-10 01:53:00,
2013-03-09 20:58:00,50.8,21.2,29.61,East,92,0.0,0.0,31,0.00,CLR,,0.00,WeatherDisplay:10.37,2013-03-10 01:58:00,
2013-03-09 21:03:00,51.0,21.4,29.61,East,92,0.0,0.0,31,0.00,CLR,,0.00,WeatherDisplay:10.37,2013-03-10 02:03:00,
2013-03-09 21:08:00,51.1,21.5,29.61,East,92,0.0,0.0,31,0.00,CLR,,0.00,WeatherDisplay:10.37,2013-03-10 02:08:00,
2013-03-09 21:13:00,51.3,21.6,29.61,East,92,0.0,0.0,31,0.00,CLR,,0.00,WeatherDisplay:10.37,2013-03-10 02:13:00,
2013-03-09 21:18:00,51.4,21.0,29.61,East,92,0.0,0.0,30,0.00,CLR,,0.00,WeatherDisplay:10.37,2013-03-10 02:18:00,
2013-03-09 21:23:00,51.4,21.0,29.61,East,92,0.0,0.0,30,0.00,CLR,,0.00,WeatherDisplay:10.37,2013-03-10 02:23:00,
2013-03-09 21:28:00,51.4,21.0,29.61,East,92,0.0,0.0,30,0.00,CLR,,0.00,WeatherDisplay:10.37,2013-03-10 02:28:00,
2013-03-09 21:33:00,51.3,20.9,29.61,East,92,0.0,0.0,30,0.00,CLR,,0.00,WeatherDisplay:10.37,2013-03-10 02:33:00,
2013-03-09 21:38:00,51.1,20.7,29.61,East,92,0.0,0.0,30,0.00,CLR,,0.00,WeatherDisplay:10.37,2013-03-10 02:38:00,
2013-03-09 21:43:00,51.0,21.4,29.62,East,92,0.0,0.0,31,0.00,CLR,,0.00,WeatherDisplay:10.37,2013-03-10 02:43:00,
2013-03-09 21:48:00,50.7,21.1,29.62,East,92,0.0,0.0,31,0.00,CLR,,0.00,WeatherDisplay:10.37,2013-03-10 02:48:00,
2013-03-09 21:53:00,50.7,21.1,29.62,East,92,0.0,0.0,31,0.00,CLR,,0.00,WeatherDisplay:10.37,2013-03-10 02:53:00,
2013-03-09 21:58:00,50.7,21.1,29.62,East,92,0.0,0.0,31,0.00,CLR,,0.00,WeatherDisplay:10.37,2013-03-10 02:58:00,
2013-03-09 22:03:00,50.5,21.7,29.62,East,92,0.0,0.0,32,0.00,CLR,,0.00,WeatherDisplay:10.37,2013-03-10 03:03:00,
2013-03-09 22:08:00,50.2,21.4,29.62,East,92,0.0,0.0,32,0.00,CLR,,0.00,WeatherDisplay:10.37,2013-03-10 03:08:00,
2013-03-09 22:13:00,49.9,21.2,29.62,East,92,0.0,0.0,32,0.00,CLR,,0.00,WeatherDisplay:10.37,2013-03-10 03:13:00,
2013-03-09 22:18:00,49.8,21.8,29.62,East,92,0.0,0.0,33,0.00,CLR,,0.00,WeatherDisplay:10.37,2013-03-10 03:18:00,
2013-03-09 22:23:00,49.8,21.8,29.62,East,92,0.0,0.0,33,0.00,CLR,,0.00,WeatherDisplay:10.37,2013-03-10 03:23:00,
2013-03-09 22:28:00,49.8,21.8,29.62,East,92,0.0,0.0,33,0.00,CLR,,0.00,WeatherDisplay:10.37,2013-03-10 03:28:00,
2013-03-09 22:33:00,49.6,22.3,29.62,East,92,0.0,0.0,34,0.00,CLR,,0.00,WeatherDisplay:10.37,2013-03-10 03:33:00,
2013-03-09 22:38:00,49.6,22.3,29.62,East,92,0.0,0.0,34,0.00,CLR,,0.00,WeatherDisplay:10.37,2013-03-10 03:38:00,
2013-03-09 22:43:00,49.5,22.3,29.62,East,92,0.0,0.0,34,0.00,CLR,,0.00,WeatherDisplay:10.37,2013-03-10 03:43:00,
2013-03-09 22:48:00,49.5,22.3,29.62,East,92,0.0,0.0,34,0.00,CLR,,0.00,WeatherDisplay:10.37,2013-03-10 03:48:00,
2013-03-09 22:53:00,49.5,22.9,29.62,East,92,0.0,0.0,35,0.00,CLR,,0.00,WeatherDisplay:10.37,2013-03-10 03:53:00,
2013-03-09 22:58:00,49.5,22.9,29.62,East,92,0.0,0.0,35,0.00,CLR,,0.00,WeatherDisplay:10.37,2013-03-10 03:58:00,
2013-03-09 23:03:00,49.6,23.0,29.62,East,92,0.0,0.0,35,0.00,CLR,,0.00,WeatherDisplay:10.37,2013-03-10 04:03:00,
2013-03-09 23:08:00,49.6,23.0,29.62,East,92,0.0,0.0,35,0.00,CLR,,0.00,WeatherDisplay:10.37,2013-03-10 04:08:00,
2013-03-09 23:13:00,49.4,23.5,29.62,East,92,0.0,0.0,36,0.00,CLR,,0.00,WeatherDisplay:10.37,2013-03-10 04:13:00,
2013-03-09 23:18:00,49.1,23.9,29.62,East,92,0.0,0.0,37,0.00,CLR,,0.00,WeatherDisplay:10.37,2013-03-10 04:18:00,
2013-03-09 23:23:00,48.8,23.6,29.62,East,92,0.0,0.0,37,0.00,CLR,,0.00,WeatherDisplay:10.37,2013-03-10 04:23:00,
2013-03-09 23:28:00,48.6,23.5,29.62,East,92,0.0,0.0,37,0.00,CLR,,0.00,WeatherDisplay:10.37,2013-03-10 04:28:00,
2013-03-09 23:33:00,48.3,23.8,29.62,East,92,0.0,0.0,38,0.00,CLR,,0.00,WeatherDisplay:10.37,2013-03-10 04:33:00,
2013-03-09 23:38:00,48.0,24.2,29.62,East,93,0.0,0.0,39,0.00,CLR,,0.00,WeatherDisplay:10.37,2013-03-10 04:38:00,
2013-03-09 23:43:00,47.7,24.5,29.62,East,93,0.0,0.0,40,0.00,CLR,,0.00,WeatherDisplay:10.37,2013-03-10 04:43:00,
2013-03-09 23:48:00,47.3,24.2,29.62,East,93,0.0,0.0,40,0.00,CLR,,0.00,WeatherDisplay:10.37,2013-03-10 04:48:00,
2013-03-09 23:53:00,47.0,25.1,29.62,East,93,0.0,0.0,42,0.00,CLR,,0.00,WeatherDisplay:10.37,2013-03-10 04:53:00,
2013-03-09 23:58:00,46.7,24.8,29.62,East,93,0.0,0.0,42,0.00,CLR,,0.00,WeatherDisplay:10.37,2013-03-10 04:58:00,